Nederlandse vliegveldverwachtingen (TAF)

Luchtvaartmeteorologische informatie voor operationeel gebruik en vluchtvoorbereiding is beschikbaar op www.luchtvaartmeteo.nl.

ZCZC
FT211700 EHEH     EINDHOVEN/EINDHOVEN   NLD   22 m.
TAF EHEH 211731Z 2118/2224 29005KT 9999 SCT025
    PROB40 TEMPO 2118/2120 2500 -DZRA BKN010
    BECMG 2119/2121 4000 BR SCT003 BKN005
    PROB30 2203/2208 VRB02KT 0600 FG OVC001
    BECMG 2210/2213 07005KT 8000 NSW SCT015
    BECMG 2212/2215 SCT020=

ZCZC
FC212100 EHGR     GILZE-RIJEN/GILZE-RIJEN   NLD   14 m.
TAF EHGR 212100Z NIL=

ZCZC
FC212100 EHKD     DE KOOY/DE KOOY   NLD   1 m.
TAF EHKD 212100Z NIL=

ZCZC
FC212100 EHLW RRA LEEUWARDEN/LEEUWARDEN   NLD   1 m.
TAF EHLW 212107Z 2122/2210 28006KT 2000 BR BKN002 OVC005
    BECMG 2122/2124 SCT010 BKN015
    PROB40 TEMPO 2203/2210 1200 BR DZ SCT001 BKN003
    PROB30 2204/2208 VRB02KT 0500 FG BKN001=

ZCZC
FC212100 EHWO     WOENSDRECHT/WOENSDRECHT   NLD   19 m.
TAF EHWO 212100Z NIL=

ZCZC
FC212100 EHVK RRB VOLKEL/VOLKEL   NLD   21 m.
TAF EHVK 212113Z 2122/2210 28004KT 2500 BR BKN003 OVC004
    PROB40 2122/2204 1500 BR -DZRA
    PROB30 2205/2208 VRB02KT 0700 FG OVC001=

ZCZC
FT212300 EHAM     AMSTERDAM/SCHIPHOL   NLD   -3 m.
TAF EHAM 212322Z 2200/2306 VRB03KT 5000 BR FEW005 BKN016
    BECMG 2200/2203 2500 BKN003
    PROB30 2203/2208 0500 FG VV001
    BECMG 2208/2211 10006KT 4000 BKN006
    BECMG 2211/2213 9999 NSW BKN020
    BECMG 2221/2224 13010KT 6000 NSC=

ZCZC
FT212300 EHBK     MAASTRICHT/MAASTRICHT-AACHEN   NLD   114 m.
TAF EHBK 212317Z 2200/2306 27005KT 8000 BKN014
    BECMG 2200/2203 4000 BR BKN006
    BECMG 2203/2206 2000 BKN003
    PROB30 2204/2211 0500 FG VV001
    BECMG 2209/2212 4000 BKN007
    BECMG 2213/2216 7000 NSW BKN014
    BECMG 2216/2218 9000=

ZCZC
FT212300 EHGG     GRONINGEN/EELDE   NLD   5 m.
TAF EHGG 212317Z 2200/2306 29003KT 1200 BR -DZ BKN003
    TEMPO 2200/2209 0800 BCFG BKN001
    PROB40 2202/2208 0400 FG VV000
    BECMG 2209/2212 4000 BKN008
    BECMG 2212/2215 9999 NSW BKN015=

ZCZC
FT212300 EHRD     ROTTERDAM/THE HAGUE AIRPORT   NLD   -5 m.
TAF EHRD 212322Z 2200/2306 25005KT 2000 BR BKN001
    PROB40 2200/2209 0500 FG VV000
    BECMG 2208/2211 4000 BKN006
    BECMG 2211/2213 10005KT 9999 NSW BKN020
    BECMG 2221/2224 6000 NSC=

22/02/2019 00.30 uur LT